Time;durP1;ratioP1;P1;durP2;ratioP2;P2;SDS_P1;SDS_P2;PMS_P1;PMS_P2;Temp;Humidity;BMP_temperature;BMP_pressure;BME280_temperature;BME280_humidity;BME280_pressure;Samples;Min_cycle;Max_cycle;Signal;HPM_P1;HPM_P2
2022/08/08 00:00:18;;;;;;;1.38;0.90;;;18.50;56.10;;;17.74;42.80;97684.06;5072732;28;20402;-73
2022/08/08 00:02:56;;;;;;;1.00;0.90;;;18.40;56.30;;;17.72;43.06;97688.91;5072496;28;20403;-73
2022/08/08 00:05:34;;;;;;;1.13;1.02;;;18.40;56.60;;;17.75;42.97;97685.63;5072544;28;20391;-73
2022/08/08 00:08:12;;;;;;;9.85;1.40;;;18.50;56.40;;;17.77;42.22;97691.50;5072310;28;20453;-72
2022/08/08 00:10:48;;;;;;;1.98;1.02;;;18.30;56.10;;;17.62;42.92;97681.00;5072651;28;20810;-73
2022/08/08 00:13:25;;;;;;;1.55;1.10;;;18.30;56.40;;;17.63;42.61;97686.06;5072013;28;20494;-73
2022/08/08 00:15:58;;;;;;;1.25;1.10;;;18.30;56.30;;;17.57;43.14;97686.41;5072267;28;20423;-73
2022/08/08 00:18:35;;;;;;;1.67;1.00;;;18.30;56.60;;;17.59;43.54;97693.03;5072271;28;20454;-73
2022/08/08 00:21:03;;;;;;;2.38;1.08;;;18.30;57.00;;;17.54;43.90;97698.47;5072398;28;20407;-73
2022/08/08 00:23:37;;;;;;;3.22;1.05;;;18.20;57.40;;;17.49;43.64;97703.91;5071705;28;20483;-72
2022/08/08 00:26:09;;;;;;;0.98;0.80;;;18.10;57.20;;;17.50;43.62;97700.16;5072209;28;20400;-72
2022/08/08 00:28:40;;;;;;;1.17;0.98;;;18.20;57.20;;;17.50;43.63;97699.34;5072121;28;20398;-73
2022/08/08 00:31:15;;;;;;;1.23;1.00;;;18.20;57.20;;;17.53;43.64;97704.09;5072071;28;20396;-72
2022/08/08 00:35:09;;;;;;;1.60;1.00;;;18.30;57.20;;;17.56;43.76;97700.88;5071571;28;20457;-72
2022/08/08 00:36:50;;;;;;;1.00;0.90;;;18.20;57.50;;;17.46;44.22;97701.00;5071603;28;20835;-72
2022/08/08 00:39:25;;;;;;;1.67;0.95;;;18.20;57.70;;;17.46;44.10;97704.47;5071799;28;20492;-72
2022/08/08 00:42:44;;;;;;;1.35;1.00;;;18.20;57.80;;;17.51;43.73;97706.31;5071718;28;20427;-72
2022/08/08 00:46:03;;;;;;;1.60;1.00;;;18.20;57.50;;;17.46;43.77;97704.47;5069084;28;20435;-72
2022/08/08 00:49:22;;;;;;;2.55;1.10;;;18.20;57.30;;;17.52;43.75;97710.53;5064602;28;20473;-72
2022/08/08 00:52:09;;;;;;;2.22;1.25;;;18.20;57.10;;;17.49;43.94;97711.13;5071734;28;20395;-72
2022/08/08 00:55:12;;;;;;;1.97;0.90;;;18.20;57.30;;;17.45;43.90;97710.91;5071167;28;20441;-72
2022/08/08 00:58:26;;;;;;;2.70;1.00;;;18.20;57.30;;;17.46;44.03;97711.69;5071437;28;20423;-72
2022/08/08 01:01:11;;;;;;;1.70;1.10;;;18.10;57.50;;;17.35;44.48;97709.16;5071414;28;20407;-72
2022/08/08 01:04:44;;;;;;;2.15;1.13;;;18.10;57.80;;;17.34;43.95;97710.25;5070918;28;20392;-73
2022/08/08 01:10:55;;;;;;;1.77;1.08;;;18.00;57.90;;;17.29;44.32;97714.88;5009408;28;20425;-72
2022/08/08 01:14:27;;;;;;;2.03;1.00;;;18.00;57.90;;;17.23;44.53;97722.13;5000835;28;20507;-72
2022/08/08 01:17:38;;;;;;;2.70;1.23;;;17.90;58.00;;;17.12;45.14;97722.56;4950879;29;20970;-72
2022/08/08 01:20:46;;;;;;;1.67;1.20;;;17.90;58.60;;;17.15;44.75;97722.75;4931792;29;20411;-72
2022/08/08 01:23:57;;;;;;;1.85;1.20;;;17.80;58.40;;;17.01;44.73;97719.19;4991500;28;20418;-72
2022/08/08 01:26:55;;;;;;;2.38;1.13;;;17.70;58.30;;;17.03;44.69;97717.03;4981393;28;20450;-72
2022/08/08 01:30:25;;;;;;;1.10;1.00;;;17.70;58.30;;;16.89;45.36;97711.56;4991762;28;20454;-72
2022/08/08 01:33:50;;;;;;;2.38;1.10;;;17.60;59.00;;;16.87;45.83;97710.25;4991147;28;20493;-72
2022/08/08 01:37:00;;;;;;;2.45;1.20;;;17.50;59.10;;;16.81;45.87;97712.19;4991530;28;20780;-72
2022/08/08 01:39:45;;;;;;;2.78;1.15;;;17.40;59.30;;;16.75;45.87;97705.28;4991512;28;20500;-72
2022/08/08 01:42:29;;;;;;;2.20;1.10;;;17.50;59.60;;;16.75;45.74;97709.84;4991553;28;20402;-72
2022/08/08 01:45:12;;;;;;;1.38;1.10;;;17.50;59.50;;;16.74;46.24;97716.25;4991122;28;20411;-72
2022/08/08 01:47:55;;;;;;;1.40;1.00;;;17.40;59.70;;;16.76;45.87;97709.56;4991405;28;20405;-72
2022/08/08 01:50:38;;;;;;;1.98;1.10;;;17.40;59.70;;;16.63;46.36;97716.34;4991463;28;20398;-72
2022/08/08 01:53:15;;;;;;;2.07;1.07;;;17.40;60.00;;;16.61;46.57;97713.16;4990993;28;20472;-72
2022/08/08 01:56:04;;;;;;;3.05;1.23;;;17.40;60.00;;;16.62;46.34;97720.09;4991295;28;20394;-72
2022/08/08 01:58:42;;;;;;;1.73;1.00;;;17.40;59.90;;;16.67;46.30;97723.81;4991317;28;20865;-72
2022/08/08 02:01:21;;;;;;;2.80;1.20;;;17.40;59.80;;;16.59;46.61;97715.28;4991283;28;20772;-72
2022/08/08 02:04:01;;;;;;;1.40;1.00;;;17.20;60.20;;;16.50;46.87;97718.84;4990773;28;20406;-72
2022/08/08 02:06:53;;;;;;;1.30;1.00;;;17.20;60.40;;;16.53;46.59;97721.78;4991335;28;20484;-72
2022/08/08 02:09:30;;;;;;;2.08;1.00;;;17.20;60.30;;;16.48;46.72;97715.66;4995728;28;20426;-72
2022/08/08 02:12:01;;;;;;;1.60;1.20;;;17.20;60.50;;;16.49;47.01;97719.91;5010755;28;20400;-72
2022/08/08 02:14:36;;;;;;;1.92;1.17;;;17.20;60.60;;;16.42;47.29;97709.56;5010349;28;20404;-72
2022/08/08 02:17:13;;;;;;;1.83;1.13;;;17.20;61.00;;;16.46;47.71;97707.13;5010142;28;20487;-72
2022/08/08 02:19:48;;;;;;;2.13;1.20;;;17.10;61.30;;;16.42;47.62;97706.09;5010668;28;20408;-72
2022/08/08 02:22:30;;;;;;;1.63;1.30;;;17.10;61.30;;;16.35;47.67;97703.75;5010656;28;20410;-72
2022/08/08 02:25:10;;;;;;;2.45;1.20;;;17.10;61.70;;;16.32;47.93;97704.28;4992573;28;20404;-72
2022/08/08 02:27:43;;;;;;;1.52;1.25;;;17.00;61.80;;;16.28;48.23;97703.28;4992990;28;20415;-72
2022/08/08 02:30:16;;;;;;;1.70;1.00;;;17.00;62.00;;;16.28;48.28;97697.94;5010633;28;20834;-72
2022/08/08 02:33:23;;;;;;;3.90;1.30;;;17.00;61.90;;;16.26;47.63;97700.88;5010321;28;20428;-72
2022/08/08 02:36:36;;;;;;;1.00;0.90;;;16.90;61.60;;;16.12;48.34;97704.47;5010460;28;20433;-71
2022/08/08 02:39:37;;;;;;;3.95;1.50;;;16.90;62.10;;;16.13;48.94;97706.06;4949907;29;20678;-72
2022/08/08 02:42:54;;;;;;;1.30;1.00;;;16.80;62.80;;;16.00;49.33;97699.47;4949911;28;20458;-72
2022/08/08 02:46:12;;;;;;;1.00;0.90;;;16.80;63.20;;;15.97;49.08;97701.91;5010298;28;20580;-71
2022/08/08 02:49:27;;;;;;;2.53;1.23;;;16.80;63.30;;;16.03;49.01;97695.44;5010373;28;20397;-72
2022/08/08 02:52:30;;;;;;;1.80;1.07;;;16.80;63.00;;;15.94;48.85;97711.25;5010398;28;20408;-72
2022/08/08 02:55:23;;;;;;;1.90;1.20;;;16.50;63.10;;;15.80;49.66;97715.63;4969781;28;20894;-72
2022/08/08 02:58:45;;;;;;;1.38;1.20;;;16.50;63.60;;;15.81;49.92;97707.34;5010288;28;20775;-72
2022/08/08 03:02:01;;;;;;;1.60;1.20;;;16.50;64.10;;;15.76;50.06;97702.03;5010321;28;20405;-72
2022/08/08 03:05:10;;;;;;;2.73;1.20;;;16.50;64.30;;;15.81;50.03;97709.22;5009874;28;20397;-72
2022/08/08 03:08:29;;;;;;;1.77;1.30;;;16.50;64.40;;;15.72;50.50;97702.84;5010219;28;20506;-72
2022/08/08 03:11:45;;;;;;;3.10;1.38;;;16.50;64.70;;;15.76;50.43;97704.72;5010178;28;20409;-71
2022/08/08 03:14:55;;;;;;;1.67;1.30;;;16.50;64.90;;;15.63;50.41;97705.31;5009736;28;20405;-71
2022/08/08 03:17:29;;;;;;;2.25;1.20;;;16.40;64.70;;;15.59;50.38;97709.59;5010161;28;20416;-72
2022/08/08 03:20:01;;;;;;;3.38;1.30;;;16.40;64.80;;;15.62;50.53;97717.06;5010176;28;20412;-72
2022/08/08 03:22:27;;;;;;;4.10;1.40;;;16.30;64.80;;;15.57;50.52;97719.75;5010234;28;20392;-72
2022/08/08 03:24:54;;;;;;;2.20;1.38;;;16.20;65.00;;;15.45;51.06;97722.72;5009624;28;20400;-72
2022/08/08 03:27:30;;;;;;;2.70;1.33;;;16.20;65.40;;;15.46;51.24;97718.19;5010124;28;20401;-72
2022/08/08 03:30:03;;;;;;;2.22;1.38;;;16.20;65.70;;;15.40;51.41;97713.94;5013265;28;20555;-72
2022/08/08 03:35:16;;;;;;;2.17;1.30;;;16.10;66.20;;;15.40;51.50;97713.94;5013404;28;20474;-72
2022/08/08 03:37:44;;;;;;;3.55;1.50;;;16.20;66.20;;;15.40;51.62;97720.06;5013288;28;20441;-71
2022/08/08 03:40:12;;;;;;;2.25;1.30;;;16.10;66.10;;;15.38;51.95;97726.75;5013504;28;20841;-71
2022/08/08 03:42:37;;;;;;;1.37;1.10;;;16.20;66.50;;;15.36;52.48;97731.56;5013237;28;20407;-71
2022/08/08 03:45:15;;;;;;;2.45;1.20;;;16.20;66.80;;;15.39;52.36;97729.16;5012942;28;20397;-71
2022/08/08 03:47:41;;;;;;;2.45;1.23;;;16.20;66.80;;;15.36;52.38;97740.34;5011994;28;20409;-71
2022/08/08 03:50:16;;;;;;;1.20;1.10;;;16.20;66.80;;;15.33;52.59;97740.13;5013340;28;20404;-72
2022/08/08 03:52:42;;;;;;;1.73;1.25;;;16.20;67.20;;;15.32;53.06;97733.97;5012936;28;20511;-71
2022/08/08 03:55:11;;;;;;;1.83;1.20;;;16.20;67.30;;;15.34;52.82;97736.34;5012876;28;20413;-71
2022/08/08 03:57:37;;;;;;;2.50;1.20;;;16.10;67.30;;;15.33;52.97;97746.25;5012863;28;20522;-71
2022/08/08 04:00:09;;;;;;;3.20;1.50;;;16.10;67.30;;;15.28;52.83;97756.13;5012859;28;20405;-71
2022/08/08 04:02:35;;;;;;;3.92;1.33;;;16.10;67.60;;;15.24;52.93;97757.75;5012906;28;20765;-70
2022/08/08 04:05:03;;;;;;;3.00;1.30;;;15.90;67.70;;;15.13;53.36;97754.28;5012598;28;20429;-71
2022/08/08 04:07:36;;;;;;;1.67;1.23;;;15.90;68.10;;;15.11;53.51;97764.44;5012912;28;20412;-71
2022/08/08 04:10:02;;;;;;;1.95;1.42;;;15.90;68.30;;;15.13;53.56;97761.50;5012881;28;20440;-71
2022/08/08 04:12:29;;;;;;;2.28;1.40;;;16.00;68.40;;;15.16;53.30;97756.44;5012726;28;20432;-72
2022/08/08 04:14:55;;;;;;;2.47;1.58;;;15.90;68.00;;;15.15;53.07;97757.50;5012224;28;20778;-71
2022/08/08 04:17:21;;;;;;;4.80;1.73;;;15.90;68.70;;;15.09;53.13;97763.91;5012663;28;20452;-71
2022/08/08 04:19:47;;;;;;;1.38;1.27;;;15.80;68.10;;;15.02;53.63;97758.88;5012564;28;20439;-71
2022/08/08 04:22:13;;;;;;;1.65;1.40;;;15.80;68.40;;;15.09;53.26;97774.59;5012652;28;20408;-71
2022/08/08 04:24:39;;;;;;;1.97;1.40;;;15.80;68.20;;;15.03;53.30;97767.66;5012073;28;20469;-71
2022/08/08 04:27:05;;;;;;;7.00;1.83;;;15.80;68.20;;;15.04;53.42;97770.03;5012509;28;20504;-71
2022/08/08 04:29:33;;;;;;;3.63;1.40;;;15.80;68.40;;;15.07;53.56;97779.38;5012389;28;20405;-71
2022/08/08 04:31:59;;;;;;;3.25;1.52;;;15.90;68.60;;;15.06;53.74;97781.25;5012325;28;20405;-71
2022/08/08 04:34:25;;;;;;;4.45;1.52;;;15.70;69.00;;;15.01;54.19;97783.13;5011964;28;20400;-71
2022/08/08 04:36:51;;;;;;;2.70;1.52;;;15.80;69.30;;;15.02;54.00;97782.06;4994596;28;20425;-72
2022/08/08 04:39:17;;;;;;;2.78;1.63;;;15.70;69.30;;;14.99;54.15;97779.94;5010535;28;20491;-71
2022/08/08 04:41:42;;;;;;;1.77;1.40;;;15.70;69.60;;;14.98;54.55;97781.00;5012271;28;20401;-72
2022/08/08 04:44:09;;;;;;;1.70;1.50;;;15.70;69.80;;;15.00;54.71;97794.84;5011771;28;20758;-72
2022/08/08 04:46:36;;;;;;;1.30;1.20;;;15.80;70.10;;;15.06;55.10;97791.91;5012141;28;20740;-72
2022/08/08 04:49:02;;;;;;;2.95;1.58;;;15.80;70.30;;;15.10;54.98;97797.53;5012093;28;20420;-72
2022/08/08 04:51:28;;;;;;;1.95;1.38;;;15.90;70.20;;;15.15;55.10;97802.03;5012081;28;20405;-72
2022/08/08 04:53:54;;;;;;;2.63;1.40;;;16.00;70.40;;;15.24;54.96;97803.88;5010349;28;20413;-72
2022/08/08 04:56:20;;;;;;;3.20;1.70;;;16.00;70.30;;;15.18;55.46;97802.31;5011849;28;20416;-72
2022/08/08 04:58:46;;;;;;;2.13;1.33;;;16.00;70.80;;;15.21;55.78;97811.59;5011842;28;20435;-72
2022/08/08 05:01:11;;;;;;;1.40;1.30;;;16.00;71.10;;;15.30;55.65;97808.13;5011917;28;20920;-72
2022/08/08 05:03:39;;;;;;;2.80;1.40;;;16.10;71.10;;;15.41;55.34;97811.59;5011292;28;20405;-72
2022/08/08 05:06:05;;;;;;;2.00;1.40;;;16.20;71.00;;;15.50;55.36;97815.25;5011832;28;20420;-72
2022/08/08 05:08:31;;;;;;;1.45;1.33;;;16.30;70.80;;;15.60;55.28;97814.47;5011511;28;20444;-73
2022/08/08 05:10:57;;;;;;;1.70;1.57;;;16.40;70.60;;;15.70;54.95;97815.25;5011825;28;20412;-72
2022/08/08 05:13:23;;;;;;;1.98;1.30;;;16.50;70.40;;;15.80;54.79;97817.84;5011330;28;20423;-71
2022/08/08 05:15:49;;;;;;;1.40;1.30;;;16.60;70.20;;;15.90;54.87;97819.69;5011529;28;20415;-73
2022/08/08 05:18:15;;;;;;;3.65;1.42;;;16.70;70.20;;;15.96;55.21;97810.56;5011386;28;20428;-72
2022/08/08 05:20:42;;;;;;;1.88;1.35;;;16.80;70.50;;;16.04;55.50;97810.00;5011609;28;20401;-73
2022/08/08 05:23:08;;;;;;;3.70;1.50;;;16.80;70.80;;;16.12;55.73;97805.94;5009871;28;20771;-71
2022/08/08 05:25:36;;;;;;;2.20;1.38;;;16.90;71.20;;;16.19;55.94;97812.59;5011429;28;20424;-72
2022/08/08 05:28:02;;;;;;;1.80;1.20;;;17.00;71.30;;;16.26;55.76;97813.06;5011192;28;20898;-72
2022/08/08 05:30:28;;;;;;;2.50;1.50;;;17.00;71.10;;;16.34;55.63;97814.34;5011444;28;20407;-72
2022/08/08 05:32:54;;;;;;;2.70;1.58;;;17.10;71.10;;;16.40;55.79;97820.47;5010889;28;20774;-71
2022/08/08 05:35:22;;;;;;;1.98;1.50;;;17.20;71.20;;;16.45;55.88;97817.78;5011264;28;20419;-71
2022/08/08 05:37:58;;;;;;;2.63;1.63;;;17.20;71.20;;;16.50;56.00;97815.06;5011164;28;20417;-72
2022/08/08 05:40:27;;;;;;;1.88;1.27;;;17.30;71.40;;;16.56;55.83;97829.97;5011304;28;20455;-72
2022/08/08 05:43:00;;;;;;;1.85;1.60;;;17.30;71.40;;;16.64;55.93;97824.06;5010716;28;20393;-72
2022/08/08 05:45:27;;;;;;;2.00;1.20;;;17.40;71.60;;;16.68;56.16;97818.97;5011119;28;20407;-72
2022/08/08 05:47:55;;;;;;;3.38;1.35;;;17.40;71.80;;;16.74;56.49;97823.19;5010916;28;20401;-72
2022/08/08 05:50:22;;;;;;;2.78;1.30;;;17.50;72.10;;;16.78;56.20;97822.34;5010528;28;20431;-72
2022/08/08 05:52:50;;;;;;;1.25;1.15;;;17.50;72.10;;;16.83;56.31;97827.66;5010272;28;20467;-72
2022/08/08 05:55:16;;;;;;;3.13;1.42;;;17.60;72.10;;;16.91;56.39;97828.94;5010747;28;20474;-71
2022/08/08 05:57:46;;;;;;;3.60;1.80;;;17.60;72.10;;;16.98;55.11;97827.53;5010700;28;20981;-72
2022/08/08 06:00:12;;;;;;;4.00;1.57;;;17.70;71.30;;;17.05;53.98;97834.44;5010749;28;21031;-72
2022/08/08 06:05:31;;;;;;;2.75;1.60;;;17.80;69.00;;;17.18;53.36;97847.16;5010675;28;20822;-72
2022/08/08 06:07:59;;;;;;;2.95;1.63;;;17.90;69.20;;;17.24;53.47;97840.66;5010590;28;20878;-72
2022/08/08 06:10:32;;;;;;;2.60;1.63;;;17.90;69.20;;;17.30;52.97;97842.19;5010665;28;20405;-72
2022/08/08 06:12:59;;;;;;;4.43;1.63;;;18.00;68.90;;;17.35;52.91;97842.16;5010422;28;20451;-72
2022/08/08 06:15:27;;;;;;;3.15;1.80;;;18.10;68.70;;;17.39;52.34;97843.19;5010641;28;20404;-72
2022/08/08 06:17:56;;;;;;;2.70;1.90;;;18.10;68.10;;;17.44;52.08;97837.00;5010492;28;20439;-72
2022/08/08 06:20:23;;;;;;;7.90;4.40;;;18.10;67.60;;;17.48;51.81;97851.41;5010682;28;20405;-72
2022/08/08 06:22:49;;;;;;;5.53;3.40;;;18.20;67.70;;;17.51;52.16;97846.28;5009005;28;20408;-72
2022/08/08 06:25:17;;;;;;;4.40;2.22;;;18.20;67.70;;;17.56;52.50;97851.56;5010427;28;20404;-72
2022/08/08 06:27:49;;;;;;;5.70;1.90;;;18.20;68.00;;;17.61;52.33;97853.38;5010520;28;20898;-72
2022/08/08 06:30:16;;;;;;;5.90;1.92;;;18.30;67.90;;;17.65;52.09;97851.78;5010594;28;20405;-72
2022/08/08 06:32:44;;;;;;;2.47;1.60;;;18.40;67.80;;;17.69;52.35;97858.16;5010315;28;20405;-72
2022/08/08 06:35:13;;;;;;;3.40;1.83;;;18.30;67.60;;;17.72;51.88;97858.38;5010254;28;20955;-72
2022/08/08 06:37:44;;;;;;;5.85;1.67;;;18.40;67.50;;;17.76;52.22;97858.59;5010352;28;20455;-72
2022/08/08 06:40:14;;;;;;;3.70;1.80;;;18.40;67.80;;;17.79;52.03;97863.41;5010708;28;20405;-72
2022/08/08 06:42:50;;;;;;;3.85;2.20;;;18.40;67.60;;;17.83;52.19;97860.94;5010287;28;20607;-72
2022/08/08 06:45:20;;;;;;;3.25;1.80;;;18.50;67.80;;;17.88;52.50;97867.03;5010357;28;20393;-72
2022/08/08 06:47:46;;;;;;;3.70;1.70;;;18.50;68.30;;;17.94;52.58;97865.09;5010343;28;20487;-72
2022/08/08 06:50:13;;;;;;;3.22;1.77;;;18.60;68.30;;;18.00;52.66;97863.94;5010397;28;20431;-72
2022/08/08 06:52:39;;;;;;;3.97;1.60;;;18.60;68.50;;;18.04;52.51;97865.75;5010339;28;20409;-72
2022/08/08 06:55:06;;;;;;;4.00;1.70;;;18.70;68.30;;;18.11;52.21;97874.25;5010065;28;20478;-72
2022/08/08 06:57:32;;;;;;;5.28;1.60;;;18.80;67.90;;;18.18;51.84;97868.56;5010244;28;20424;-72
2022/08/08 07:00:01;;;;;;;5.43;2.00;;;18.80;67.60;;;18.22;52.16;97866.06;5010208;28;20412;-72
2022/08/08 07:02:32;;;;;;;6.07;2.00;;;18.90;67.80;;;18.29;52.29;97872.69;5011465;28;20762;-72
2022/08/08 07:05:05;;;;;;;7.65;2.22;;;19.00;68.00;;;18.37;52.43;97871.22;5013727;28;20401;-72
2022/08/08 07:07:46;;;;;;;3.10;1.73;;;19.00;68.40;;;18.46;52.48;97870.31;5013972;28;20397;-72
2022/08/08 07:10:14;;;;;;;3.15;1.70;;;19.10;68.50;;;18.54;52.51;97880.38;5088191;22;20517;-75
2022/08/08 07:12:43;;;;;;;5.38;2.15;;;19.20;68.40;;;18.61;52.56;97871.19;5093193;28;20401;-77
2022/08/08 07:15:12;;;;;;;6.78;1.90;;;19.20;68.40;;;18.67;52.73;97873.50;5093551;28;20486;-76
2022/08/08 07:17:46;;;;;;;5.55;1.75;;;19.30;68.50;;;18.72;52.77;97867.28;5093649;28;20513;-77
2022/08/08 07:20:18;;;;;;;2.78;1.48;;;19.40;68.70;;;18.79;52.82;97873.06;5093395;28;20398;-77
2022/08/08 07:22:59;;;;;;;4.20;2.00;;;19.40;68.70;;;18.85;53.04;97872.69;5093418;28;20390;-77
2022/08/08 07:25:25;;;;;;;4.13;1.98;;;19.50;68.90;;;18.91;53.10;97876.09;5093510;28;20397;-77
2022/08/08 07:28:02;;;;;;;2.13;1.75;;;19.50;69.00;;;19.00;53.19;97881.59;5093452;28;20409;-76
2022/08/08 07:30:29;;;;;;;2.85;2.00;;;19.60;69.10;;;19.07;53.00;97884.69;5093448;28;20398;-77
2022/08/08 07:32:56;;;;;;;3.15;1.80;;;19.70;69.00;;;19.12;53.33;97882.72;5093151;28;20390;-76
2022/08/08 07:35:24;;;;;;;5.53;2.00;;;19.70;69.20;;;19.18;53.01;97881.53;5109027;28;20762;-77
2022/08/08 07:37:52;;;;;;;3.30;2.22;;;19.80;69.10;;;19.24;52.57;97877.69;5093262;28;20892;-77
2022/08/08 07:40:18;;;;;;;6.40;2.60;;;19.90;68.60;;;19.33;52.75;97878.59;5093185;28;20759;-77
2022/08/08 07:42:50;;;;;;;2.63;1.80;;;19.90;68.70;;;19.41;52.90;97884.38;5093155;28;20447;-76
2022/08/08 07:45:16;;;;;;;3.40;1.95;;;20.00;69.00;;;19.47;52.92;97881.31;5093052;28;20938;-76
2022/08/08 07:47:44;;;;;;;3.53;1.97;;;20.10;69.10;;;19.53;53.18;97880.16;5093138;28;20390;-76
2022/08/08 07:50:10;;;;;;;4.53;2.30;;;20.10;69.10;;;19.59;52.86;97884.34;5093082;28;20501;-77
2022/08/08 07:52:39;;;;;;;2.35;1.80;;;20.20;69.00;;;19.66;52.75;97883.94;5092978;28;20540;-76
2022/08/08 07:55:13;;;;;;;3.47;2.10;;;20.20;68.90;;;19.72;52.57;97882.75;5092760;28;20390;-77
2022/08/08 07:57:46;;;;;;;4.28;1.80;;;20.30;68.70;;;19.77;52.78;97887.25;5092927;28;20413;-77
2022/08/08 08:00:15;;;;;;;4.28;2.25;;;20.30;68.70;;;19.84;52.56;97883.09;5092968;28;20402;-77
2022/08/08 08:02:54;;;;;;;3.55;1.90;;;20.40;68.70;;;19.91;52.62;97893.44;5092667;28;20889;-78
2022/08/08 08:05:25;;;;;;;5.57;2.33;;;20.50;68.60;;;19.98;52.31;97891.13;5092717;28;20443;-76
2022/08/08 08:08:01;;;;;;;3.78;1.98;;;20.60;68.40;;;20.08;52.17;97893.59;5092726;28;20423;-76
2022/08/08 08:10:29;;;;;;;4.05;2.28;;;20.60;68.30;;;20.18;52.16;97898.78;5092617;28;20409;-75
2022/08/08 08:13:19;;;;;;;3.55;1.90;;;20.80;68.30;;;20.26;52.11;97900.75;5092319;28;20407;-75
2022/08/08 08:15:53;;;;;;;4.93;1.90;;;20.80;68.20;;;20.40;52.48;97900.75;5092129;28;20410;-76
2022/08/08 08:18:22;;;;;;;4.35;2.05;;;20.90;68.40;;;20.52;51.87;97911.81;5092440;28;20421;-76
2022/08/08 08:20:51;;;;;;;3.97;2.03;;;21.10;67.90;;;20.61;51.59;97906.50;5092518;28;20467;-77
2022/08/08 08:23:17;;;;;;;4.30;2.13;;;21.20;67.60;;;20.74;51.76;97900.28;5092025;28;20752;-75
2022/08/08 08:25:43;;;;;;;3.77;2.00;;;21.30;67.80;;;20.85;51.60;97910.50;5092422;28;20505;-77
2022/08/08 08:28:09;;;;;;;6.00;2.55;;;21.40;67.70;;;20.99;49.77;97902.38;5092462;28;20448;-76
2022/08/08 08:30:36;;;;;;;5.80;2.47;;;21.60;65.40;;;21.11;49.05;97905.34;5092153;28;20492;-76
2022/08/08 08:33:02;;;;;;;3.08;1.90;;;21.70;64.60;;;21.22;48.88;97904.00;5091920;28;20398;-76
2022/08/08 08:35:30;;;;;;;4.05;2.13;;;21.80;64.40;;;21.33;48.93;97903.75;5092189;28;20402;-77
2022/08/08 08:37:56;;;;;;;4.38;2.20;;;21.90;64.30;;;21.42;48.19;97901.91;5092048;28;20448;-76
2022/08/08 08:40:22;;;;;;;6.70;3.20;;;22.00;63.60;;;21.46;46.83;97908.25;5092108;28;20860;-77
2022/08/08 08:42:49;;;;;;;4.68;2.47;;;22.10;61.90;;;21.57;46.46;97909.59;5091978;28;20401;-77
2022/08/08 08:45:15;;;;;;;2.10;1.90;;;22.10;61.40;;;21.67;46.62;97911.22;5091979;28;20395;-76
2022/08/08 08:47:43;;;;;;;3.92;1.75;;;22.20;61.60;;;21.74;46.77;97908.88;5091928;28;20489;-77
2022/08/08 08:50:09;;;;;;;4.47;2.63;;;22.30;61.80;;;21.81;46.97;97906.50;5090564;28;20805;-77
2022/08/08 08:52:42;;;;;;;3.77;2.00;;;22.30;61.90;;;21.88;47.22;97913.03;5091859;28;20405;-77
2022/08/08 08:55:14;;;;;;;3.50;2.08;;;22.40;62.20;;;21.97;47.28;97905.03;5091660;28;20409;-77
2022/08/08 08:57:42;;;;;;;3.63;1.95;;;22.50;61.80;;;22.06;46.03;97907.75;5091677;28;20915;-77
2022/08/08 09:00:10;;;;;;;5.07;2.30;;;22.60;60.90;;;22.09;44.74;97913.34;5091739;28;20393;-77
2022/08/08 09:02:37;;;;;;;3.93;1.97;;;22.60;59.40;;;22.19;45.06;97906.84;5091555;28;20492;-77
2022/08/08 09:05:09;;;;;;;5.07;2.17;;;22.70;59.90;;;22.23;44.63;97908.63;5091140;28;20401;-77
2022/08/08 09:07:39;;;;;;;5.72;2.17;;;22.80;59.40;;;22.32;44.62;97906.72;5091643;28;20477;-77
2022/08/08 09:10:07;;;;;;;2.75;1.80;;;22.90;59.30;;;22.40;45.03;97897.84;5091342;28;20475;-77
2022/08/08 09:12:34;;;;;;;2.10;1.70;;;22.90;59.50;;;22.49;44.87;97905.94;5091432;28;20477;-76
2022/08/08 09:15:01;;;;;;;4.32;2.05;;;23.00;59.50;;;22.52;42.75;97907.22;5090952;28;20451;-77
2022/08/08 09:17:27;;;;;;;2.58;1.52;;;23.10;57.30;;;22.66;42.95;97899.78;5091473;28;20413;-77
2022/08/08 09:19:56;;;;;;;2.17;1.85;;;23.10;57.60;;;22.75;42.60;97904.09;5091374;28;20406;-77
2022/08/08 09:22:23;;;;;;;2.35;1.52;;;23.30;57.20;;;22.88;42.86;97909.66;5091273;28;20747;-77
2022/08/08 09:24:53;;;;;;;3.72;1.60;;;23.40;57.60;;;22.95;42.18;97916.16;5090912;28;20481;-76
2022/08/08 09:27:20;;;;;;;3.58;1.95;;;23.50;56.90;;;22.98;41.28;97912.06;5091213;28;20428;-77
2022/08/08 09:29:52;;;;;;;2.65;1.50;;;23.50;55.70;;;23.10;41.90;97906.78;5091019;28;20462;-77
2022/08/08 09:32:35;;;;;;;3.30;2.10;;;23.50;56.40;;;23.14;41.11;97907.75;5091164;28;20394;-77
2022/08/08 09:35:06;;;;;;;4.63;1.90;;;23.60;55.60;;;23.23;41.73;97903.09;5090677;28;20398;-77
2022/08/08 09:37:44;;;;;;;3.33;1.87;;;23.70;56.20;;;23.35;41.45;97905.97;5106605;28;20424;-77
2022/08/08 09:40:14;;;;;;;3.08;1.70;;;23.80;56.00;;;23.38;40.67;97899.91;5091118;28;20421;-77
2022/08/08 09:42:42;;;;;;;6.13;2.13;;;23.90;55.40;;;23.43;39.63;97898.94;5090811;28;20603;-77
2022/08/08 09:45:10;;;;;;;3.05;1.52;;;23.90;54.00;;;23.54;40.08;97905.63;5090686;28;20548;-77
2022/08/08 09:47:39;;;;;;;3.35;1.70;;;24.00;54.70;;;23.66;39.92;97905.75;5091065;28;20391;-76
2022/08/08 09:50:09;;;;;;;5.60;1.80;;;24.10;54.40;;;23.81;38.95;97901.72;5090764;28;20469;-76
2022/08/08 09:52:37;;;;;;;5.32;1.75;;;24.30;53.60;;;23.86;38.13;97906.94;5090853;28;20456;-77
2022/08/08 09:55:06;;;;;;;3.42;1.45;;;24.40;52.50;;;24.03;38.47;97898.75;5089964;28;20410;-77
2022/08/08 09:57:36;;;;;;;2.58;1.35;;;24.50;52.80;;;24.23;37.74;97891.84;5106430;28;20414;-77
2022/08/08 10:00:08;;;;;;;3.45;1.50;;;24.70;51.90;;;24.44;35.70;97891.84;5106429;28;20398;-77
2022/08/08 10:02:36;;;;;;;2.95;1.60;;;25.00;49.80;;;24.82;36.11;97887.13;5090816;28;20392;-77
2022/08/08 10:05:06;;;;;;;2.10;1.30;;;25.40;50.00;;;25.21;35.15;97893.16;5090336;28;20750;-77
2022/08/08 10:07:32;;;;;;;2.30;1.20;;;26.00;49.20;;;25.59;34.70;97890.25;5090725;28;20406;-77
2022/08/08 10:09:58;;;;;;;2.50;1.33;;;26.40;48.60;;;25.86;33.13;97888.84;5090448;28;20405;-76
2022/08/08 10:12:32;;;;;;;2.83;1.20;;;26.70;46.70;;;26.13;33.72;97875.38;5090707;28;20448;-76
2022/08/08 10:15:03;;;;;;;3.33;1.50;;;26.90;47.30;;;26.26;31.94;97872.66;5090172;28;20401;-77
2022/08/08 10:17:31;;;;;;;1.85;1.25;;;27.10;45.30;;;26.53;32.51;97890.97;5090709;28;20420;-77
2022/08/08 10:19:59;;;;;;;3.20;1.48;;;27.20;46.20;;;26.70;32.62;97882.53;5106204;28;20477;-77
2022/08/08 10:22:27;;;;;;;2.08;1.27;;;27.30;46.30;;;26.77;33.04;97884.66;5090559;28;20406;-77
2022/08/08 10:25:00;;;;;;;3.35;1.30;;;27.30;46.70;;;26.69;32.99;97889.09;5090026;28;20398;-77
2022/08/08 10:27:30;;;;;;;1.70;1.20;;;27.20;46.80;;;26.55;33.81;97881.31;5090468;28;20394;-76
2022/08/08 10:30:04;;;;;;;1.83;1.23;;;27.00;47.40;;;26.42;33.93;97878.97;5090460;28;20493;-77
2022/08/08 10:32:31;;;;;;;2.97;1.50;;;26.80;47.60;;;26.25;32.68;97877.31;5090492;28;20519;-77
2022/08/08 10:34:59;;;;;;;3.97;1.55;;;26.70;46.30;;;26.18;31.91;97877.06;5089733;28;20398;-77
2022/08/08 10:37:27;;;;;;;3.30;1.50;;;26.60;45.10;;;26.12;32.15;97873.00;5091585;28;20461;-78
2022/08/08 10:39:54;;;;;;;4.40;1.80;;;26.60;45.70;;;26.21;33.29;97873.66;5094361;28;20972;-77
2022/08/08 10:42:23;;;;;;;2.47;1.35;;;26.60;46.80;;;26.37;33.60;97866.44;5094497;28;20404;-77
2022/08/08 10:44:57;;;;;;;3.45;1.35;;;26.80;47.60;;;26.51;33.23;97872.28;5093944;28;20394;-77
2022/08/08 10:47:24;;;;;;;2.13;1.47;;;27.00;47.90;;;26.46;31.73;97869.78;5094389;28;20386;-77
2022/08/08 10:49:52;;;;;;;2.13;1.50;;;26.90;45.40;;;26.63;32.88;97870.66;5094269;28;20437;-77
2022/08/08 10:52:24;;;;;;;3.65;1.40;;;27.00;46.70;;;26.62;33.32;97874.50;5094362;28;20471;-77
2022/08/08 10:54:55;;;;;;;2.05;1.40;;;27.00;47.90;;;26.54;33.23;97879.72;5093833;28;20413;-76
2022/08/08 10:57:21;;;;;;;4.60;1.60;;;27.00;46.90;;;26.20;32.56;97881.00;5094161;28;20496;-76
2022/08/08 10:59:53;;;;;;;1.80;1.30;;;26.70;45.90;;;26.18;34.04;97874.34;5092801;28;20740;-77
2022/08/08 11:02:29;;;;;;;2.42;1.52;;;26.60;47.20;;;26.27;34.43;97875.03;5094117;28;20398;-77